Time;durP1;ratioP1;P1;durP2;ratioP2;P2;SDS_P1;SDS_P2;PMS_P1;PMS_P2;Temp;Humidity;BMP_temperature;BMP_pressure;BME280_temperature;BME280_humidity;BME280_pressure;Samples;Min_cycle;Max_cycle;Signal;HPM_P1;HPM_P2
2024/01/02 00:03:01;;;;;;;13.90;12.50;;;;;;;22.45;34.34;94791.34;6163530;28;110003;-62
2024/01/02 00:06:19;;;;;;;14.50;13.10;;;;;;;22.47;33.79;94801.69;6151030;28;109142;-61
2024/01/02 00:09:34;;;;;;;15.00;13.70;;;;;;;22.50;34.11;94807.19;6169668;28;109102;-60
2024/01/02 00:12:43;;;;;;;13.93;12.70;;;;;;;22.50;33.73;94804.50;6174865;28;109586;-60
2024/01/02 00:15:53;;;;;;;14.50;13.20;;;;;;;22.52;34.01;94807.69;6174222;28;109025;-61
2024/01/02 00:19:02;;;;;;;14.20;12.90;;;;;;;22.55;33.84;94803.59;6157833;28;109179;-61
2024/01/02 00:22:20;;;;;;;13.20;12.10;;;;;;;22.53;33.84;94803.13;6162482;28;109182;-63
2024/01/02 00:25:29;;;;;;;14.43;13.13;;;;;;;22.53;34.25;94803.91;6161576;28;109162;-61
2024/01/02 00:28:42;;;;;;;13.90;12.70;;;;;;;22.52;33.88;94802.34;6151907;28;110997;-61
2024/01/02 00:32:01;;;;;;;13.47;12.27;;;;;;;22.54;34.09;94805.47;6161383;28;109898;-61
2024/01/02 00:35:16;;;;;;;13.10;11.93;;;;;;;22.54;34.53;94805.47;6159069;28;109316;-61
2024/01/02 00:38:31;;;;;;;13.67;12.47;;;;;;;22.54;34.07;94796.69;6156627;28;109559;-61
2024/01/02 00:41:42;;;;;;;13.73;12.53;;;;;;;22.54;34.39;94797.47;6156370;28;109150;-61
2024/01/02 00:44:50;;;;;;;13.67;12.37;;;;;;;22.52;34.01;94793.56;6161262;28;109623;-61
2024/01/02 00:48:08;;;;;;;14.30;13.00;;;;;;;22.52;34.12;94783.69;6160410;28;109122;-60
2024/01/02 00:51:26;;;;;;;14.70;13.20;;;;;;;22.50;34.64;94783.19;6150924;28;109882;-61
2024/01/02 00:54:41;;;;;;;14.40;13.00;;;;;;;22.50;34.75;94783.19;6161481;28;110302;-61
2024/01/02 00:57:53;;;;;;;14.00;12.70;;;;;;;22.49;34.26;94786.94;6180265;28;109196;-61
2024/01/02 01:01:07;;;;;;;13.90;12.70;;;;;;;22.48;34.37;94795.25;6178835;28;109059;-63
2024/01/02 01:04:23;;;;;;;14.03;12.57;;;;;;;22.48;34.06;94780.06;6172100;28;109293;-60
2024/01/02 01:07:34;;;;;;;14.30;12.90;;;;;;;22.43;34.38;94777.56;6167538;28;109331;-61
2024/01/02 01:10:43;;;;;;;13.90;12.70;;;;;;;22.48;34.64;94776.59;6161151;28;109511;-61
2024/01/02 01:13:54;;;;;;;13.70;12.40;;;;;;;22.48;34.41;94776.59;6154140;28;109258;-61
2024/01/02 01:17:09;;;;;;;13.60;12.30;;;;;;;22.48;34.14;94772.06;6165266;28;109452;-66
2024/01/02 01:20:32;;;;;;;13.70;12.50;;;;;;;22.44;34.68;94763.13;6160279;28;108844;-66
2024/01/02 01:23:47;;;;;;;14.20;12.90;;;;;;;22.48;34.16;94764.06;6185394;28;110140;-66
2024/01/02 01:27:01;;;;;;;13.80;12.50;;;;;;;22.48;34.23;94769.38;6161025;28;110771;-66
2024/01/02 01:30:17;;;;;;;12.97;11.80;;;;;;;22.44;34.50;94763.13;6161150;28;109577;-66
2024/01/02 01:33:27;;;;;;;13.63;12.47;;;;;;;22.47;34.06;94773.16;6160627;28;109215;-66
2024/01/02 01:36:37;;;;;;;13.07;11.80;;;;;;;22.46;34.31;94768.13;6149731;28;109096;-67
2024/01/02 01:39:52;;;;;;;13.67;12.47;;;;;;;22.45;34.59;94762.00;6178413;28;109584;-67
2024/01/02 01:43:04;;;;;;;13.00;11.80;;;;;;;22.43;34.20;94761.56;6160174;28;109384;-65
2024/01/02 01:46:26;;;;;;;13.30;12.10;;;;;;;22.43;34.76;94769.56;6159972;28;109169;-66
2024/01/02 01:49:39;;;;;;;14.63;13.23;;;;;;;22.42;34.19;94762.66;6149854;28;109145;-66
2024/01/02 01:53:03;;;;;;;13.73;12.50;;;;;;;22.41;34.84;94769.88;6160054;28;109158;-67
2024/01/02 01:56:10;;;;;;;14.00;12.60;;;;;;;22.39;34.45;94763.28;6159137;28;109473;-67
2024/01/02 01:59:19;;;;;;;13.63;12.43;;;;;;;22.39;34.70;94765.94;6167463;28;110108;-67
2024/01/02 02:02:33;;;;;;;12.97;11.63;;;;;;;22.38;34.22;94757.16;6158903;28;109188;-67
2024/01/02 02:05:53;;;;;;;12.80;11.60;;;;;;;22.39;34.71;94750.75;6158503;28;109526;-66
2024/01/02 02:09:08;;;;;;;12.70;11.60;;;;;;;22.39;34.48;94749.94;6161023;28;109020;-67
2024/01/02 02:12:26;;;;;;;13.23;12.00;;;;;;;22.40;34.57;94751.53;6149021;28;109079;-67
2024/01/02 02:15:38;;;;;;;12.73;11.50;;;;;;;22.40;34.33;94748.84;6182276;28;109375;-67
2024/01/02 02:18:55;;;;;;;12.43;11.33;;;;;;;22.39;34.79;94750.75;6160540;28;109252;-66
2024/01/02 02:22:08;;;;;;;12.37;11.17;;;;;;;22.40;34.71;94757.63;6173762;28;109208;-66
2024/01/02 02:25:17;;;;;;;12.93;11.73;;;;;;;22.40;34.21;94754.19;6158940;28;110786;-66
2024/01/02 02:28:25;;;;;;;12.37;11.20;;;;;;;22.39;34.14;94750.75;6174662;28;109290;-62
2024/01/02 02:31:42;;;;;;;11.90;10.80;;;;;;;22.38;34.10;94754.50;6180000;28;109166;-62
2024/01/02 02:34:54;;;;;;;12.97;11.77;;;;;;;22.37;34.50;94752.16;6161009;28;109020;-62
2024/01/02 02:38:08;;;;;;;11.67;10.50;;;;;;;22.37;34.12;94749.50;6160399;28;108963;-63
2024/01/02 02:41:18;;;;;;;11.87;10.77;;;;;;;22.38;34.57;94751.06;6160431;28;109547;-62
2024/01/02 02:44:28;;;;;;;11.57;10.57;;;;;;;22.36;34.73;94753.25;6155335;28;109124;-63
2024/01/02 02:47:39;;;;;;;11.57;10.57;;;;;;;22.35;34.79;94759.69;6152529;28;109716;-62
2024/01/02 02:50:52;;;;;;;12.80;11.70;;;;;;;22.34;34.21;94747.44;6160463;28;109057;-63
2024/01/02 02:54:02;;;;;;;11.83;10.83;;;;;;;22.33;34.66;94762.63;6159563;28;109245;-62
2024/01/02 02:57:18;;;;;;;12.50;11.40;;;;;;;22.32;34.31;94755.75;6153010;28;109902;-63
2024/01/02 03:00:29;;;;;;;11.50;10.47;;;;;;;22.33;34.46;94764.53;6164274;28;109112;-63
2024/01/02 03:03:42;;;;;;;11.17;10.27;;;;;;;22.33;34.33;94751.19;6164926;28;111714;-62
2024/01/02 03:06:53;;;;;;;11.67;10.60;;;;;;;22.33;34.56;94746.66;6161963;28;109485;-62
2024/01/02 03:10:01;;;;;;;12.20;11.00;;;;;;;22.33;34.63;94743.19;6155318;28;109274;-63
2024/01/02 03:13:21;;;;;;;12.40;11.20;;;;;;;22.33;34.46;94740.53;6163015;28;109056;-63
2024/01/02 03:16:33;;;;;;;11.87;10.87;;;;;;;22.32;34.64;94750.41;6163681;28;109589;-63
2024/01/02 03:19:47;;;;;;;12.43;11.30;;;;;;;22.29;34.00;94736.94;6152833;28;109040;-63
2024/01/02 03:23:02;;;;;;;11.40;10.40;;;;;;;22.33;33.96;94738.66;6164085;28;109129;-63
2024/01/02 03:26:18;;;;;;;11.97;10.87;;;;;;;22.33;34.11;94745.88;6163679;28;110586;-62
2024/01/02 03:29:27;;;;;;;12.47;11.27;;;;;;;22.33;34.35;94745.88;6163729;28;109944;-62
2024/01/02 03:32:43;;;;;;;11.63;10.63;;;;;;;22.32;33.94;94738.97;6167882;28;109110;-62
2024/01/02 03:35:58;;;;;;;12.67;11.57;;;;;;;22.31;34.01;94753.38;6171005;28;109347;-63
2024/01/02 03:39:13;;;;;;;12.37;11.27;;;;;;;22.31;34.22;94766.72;6163985;28;109396;-61
2024/01/02 03:42:21;;;;;;;12.57;11.43;;;;;;;22.33;33.96;94751.19;6168730;28;109304;-61
2024/01/02 03:45:27;;;;;;;12.53;11.43;;;;;;;22.32;34.24;94754.97;6174901;28;108991;-63
2024/01/02 03:48:35;;;;;;;12.07;11.00;;;;;;;22.29;34.54;94743.03;6172400;28;110085;-59
2024/01/02 03:51:47;;;;;;;12.03;10.87;;;;;;;22.27;34.21;94739.13;6174521;28;109088;-59
2024/01/02 03:54:54;;;;;;;12.37;11.27;;;;;;;22.26;34.83;94757.00;6165911;28;109057;-59
2024/01/02 03:58:00;;;;;;;12.27;11.13;;;;;;;22.26;34.83;94743.69;6170969;28;109169;-61
2024/01/02 04:01:15;;;;;;;12.17;11.10;;;;;;;22.23;34.29;94741.66;6173611;28;109109;-61
2024/01/02 04:04:28;;;;;;;12.10;11.10;;;;;;;22.27;34.45;94753.25;6184215;28;109076;-62
2024/01/02 04:07:38;;;;;;;10.93;10.03;;;;;;;22.31;34.13;94748.84;6179452;28;109014;-62
2024/01/02 04:10:50;;;;;;;12.03;10.67;;;;;;;22.37;34.32;94755.59;6162011;28;109333;-61
2024/01/02 04:14:02;;;;;;;11.37;10.40;;;;;;;22.39;34.55;94750.75;6161736;28;109047;-61
2024/01/02 04:17:18;;;;;;;13.10;11.70;;;;;;;22.41;34.68;94753.88;6159842;28;109342;-61
2024/01/02 04:20:29;;;;;;;12.57;11.47;;;;;;;22.46;34.33;94755.59;6170028;28;109042;-61
2024/01/02 04:23:40;;;;;;;12.03;11.03;;;;;;;22.58;34.26;94755.78;6176232;28;109357;-61
2024/01/02 04:26:51;;;;;;;11.93;10.90;;;;;;;22.69;34.38;94749.03;6163116;28;110359;-62
2024/01/02 04:30:03;;;;;;;14.30;12.87;;;;;;;22.80;35.24;94757.47;6155114;28;110196;-61
2024/01/02 04:33:20;;;;;;;14.33;13.00;;;;;;;22.88;35.10;94761.22;6163112;28;109349;-62
2024/01/02 04:36:36;;;;;;;13.73;12.47;;;;;;;22.93;35.63;94769.84;6169048;28;109154;-61
2024/01/02 04:39:48;;;;;;;13.30;12.20;;;;;;;22.88;36.04;94763.88;6164233;28;109036;-62
2024/01/02 04:42:59;;;;;;;12.50;11.40;;;;;;;22.92;35.63;94772.81;6169491;28;109112;-62
2024/01/02 04:46:12;;;;;;;13.30;12.00;;;;;;;22.91;35.75;94764.03;6187429;28;109975;-61
2024/01/02 04:49:25;;;;;;;12.07;10.97;;;;;;;22.88;36.33;94758.56;6179850;28;109511;-63
2024/01/02 04:52:36;;;;;;;12.47;10.53;;;;;;;22.91;36.13;94755.25;6159749;28;109668;-63
2024/01/02 04:55:44;;;;;;;12.20;10.60;;;;;;;23.00;36.25;94753.31;6168916;28;109388;-65
2024/01/02 04:58:55;;;;;;;12.97;11.67;;;;;;;22.97;35.83;94760.09;6170792;28;109039;-63
2024/01/02 05:02:04;;;;;;;11.63;10.63;;;;;;;22.95;36.24;94762.28;6157469;28;109523;-62
2024/01/02 05:05:18;;;;;;;11.13;10.00;;;;;;;22.94;36.08;94760.72;6172114;28;109261;-62
2024/01/02 05:08:34;;;;;;;10.23;9.23;;;;;;;22.80;35.74;94770.00;6174400;28;109076;-63
2024/01/02 05:11:50;;;;;;;6.07;5.57;;;;;;;22.61;35.74;94767.69;6170026;28;109046;-65
2024/01/02 05:15:06;;;;;;;6.87;6.27;;;;;;;22.37;35.17;94760.16;6153818;28;109428;-64
2024/01/02 05:18:19;;;;;;;5.30;4.80;;;;;;;22.29;35.07;94771.59;6161656;28;109278;-64
2024/01/02 05:21:41;;;;;;;5.20;4.80;;;;;;;22.32;35.36;94773.63;6163360;28;109318;-61
2024/01/02 05:24:55;;;;;;;5.10;4.60;;;;;;;22.44;35.26;94768.44;6156638;28;109456;-63
2024/01/02 05:28:08;;;;;;;5.33;4.50;;;;;;;22.52;35.13;94778.34;6155728;28;110528;-62
2024/01/02 05:31:20;;;;;;;5.20;4.70;;;;;;;22.60;34.57;94774.13;6161666;28;109310;-62
2024/01/02 05:34:30;;;;;;;4.90;4.10;;;;;;;22.58;34.56;94785.09;6160673;28;109394;-61
2024/01/02 05:37:47;;;;;;;6.40;4.53;;;;;;;22.53;35.26;94795.91;6151189;28;111338;-63
2024/01/02 05:40:58;;;;;;;4.80;4.40;;;;;;;22.49;35.17;94796.84;6161027;28;109006;-63
2024/01/02 05:44:11;;;;;;;5.07;4.53;;;;;;;22.48;34.72;94797.94;6161547;28;109615;-63
2024/01/02 05:47:21;;;;;;;5.27;4.60;;;;;;;22.46;35.01;94792.91;6160712;28;109116;-63
2024/01/02 05:50:41;;;;;;;5.30;4.80;;;;;;;22.44;35.05;94805.00;6155724;28;109109;-62
2024/01/02 05:53:52;;;;;;;5.07;4.57;;;;;;;22.43;34.76;94804.22;6161472;28;109396;-63
2024/01/02 05:57:04;;;;;;;4.20;3.80;;;;;;;22.42;35.30;94814.09;6161442;28;109062;-62
2024/01/02 06:00:21;;;;;;;4.77;4.37;;;;;;;22.41;34.92;94811.75;6174423;28;110136;-63
2024/01/02 06:03:33;;;;;;;5.47;4.97;;;;;;;22.38;34.86;94810.50;6184635;28;109052;-62
2024/01/02 06:06:52;;;;;;;4.73;4.33;;;;;;;22.35;35.01;94819.13;6185657;28;109264;-62
2024/01/02 06:10:10;;;;;;;4.63;4.03;;;;;;;22.35;35.21;94826.34;6184776;28;109290;-63
2024/01/02 06:13:20;;;;;;;4.73;4.33;;;;;;;22.35;35.18;94839.66;6174908;28;109208;-63
2024/01/02 06:16:36;;;;;;;4.93;4.43;;;;;;;22.32;35.46;94835.72;6184710;28;109050;-63
2024/01/02 06:19:52;;;;;;;5.70;4.07;;;;;;;22.31;35.10;94839.47;6185188;28;109604;-63
2024/01/02 06:23:02;;;;;;;4.50;4.10;;;;;;;22.31;35.55;94846.69;6175369;28;109363;-63
2024/01/02 06:26:21;;;;;;;4.73;4.00;;;;;;;22.30;35.59;94847.78;6184900;28;109124;-63
2024/01/02 06:29:38;;;;;;;5.13;4.70;;;;;;;22.29;35.55;94855.00;6184399;28;108984;-62
2024/01/02 06:32:53;;;;;;;4.33;4.00;;;;;;;22.30;35.13;94853.13;6184351;28;109394;-63
2024/01/02 06:36:12;;;;;;;5.17;3.80;;;;;;;22.28;35.12;94857.97;6174540;28;109078;-61
2024/01/02 06:39:28;;;;;;;4.23;3.80;;;;;;;22.28;35.15;94860.66;6185237;28;109381;-63
2024/01/02 06:42:46;;;;;;;3.60;3.30;;;;;;;22.28;35.27;94865.97;6184020;28;109235;-63
2024/01/02 06:46:00;;;;;;;4.07;3.67;;;;;;;22.42;35.29;94862.09;6175585;28;109715;-61
2024/01/02 06:49:11;;;;;;;4.93;4.30;;;;;;;22.51;35.61;94862.06;6185023;28;109067;-64
2024/01/02 06:52:22;;;;;;;4.07;3.20;;;;;;;22.58;34.95;94867.78;6185312;28;109294;-62
2024/01/02 06:55:37;;;;;;;3.80;3.40;;;;;;;22.59;35.40;94877.34;6183765;28;109070;-60
2024/01/02 06:58:56;;;;;;;3.53;3.23;;;;;;;22.65;35.27;94884.09;6173217;28;109572;-62
2024/01/02 07:02:08;;;;;;;3.80;3.50;;;;;;;22.62;35.55;94887.38;6185039;28;109132;-61
2024/01/02 07:05:23;;;;;;;3.60;3.30;;;;;;;22.59;35.91;94904.03;6184080;28;109177;-60
2024/01/02 07:08:38;;;;;;;3.10;2.80;;;;;;;22.48;35.74;94896.59;6175229;28;110699;-63
2024/01/02 07:11:53;;;;;;;4.70;3.30;;;;;;;22.56;35.42;94893.16;6183079;28;109207;-61
2024/01/02 07:15:16;;;;;;;3.00;2.70;;;;;;;22.63;35.38;94891.63;6183035;28;109081;-59
2024/01/02 07:18:30;;;;;;;3.73;3.43;;;;;;;22.48;35.77;94883.25;6185147;28;108912;-61
2024/01/02 07:21:49;;;;;;;4.17;3.40;;;;;;;22.41;35.83;94878.41;6174228;28;109604;-61
2024/01/02 07:25:04;;;;;;;3.27;2.80;;;;;;;22.38;35.77;94881.69;6184592;28;110279;-60
2024/01/02 07:28:20;;;;;;;3.00;2.67;;;;;;;22.37;35.76;94896.13;6183897;28;109061;-60
2024/01/02 07:31:34;;;;;;;2.83;2.50;;;;;;;22.35;35.40;94891.09;6179190;28;109064;-61
2024/01/02 07:34:50;;;;;;;2.90;2.60;;;;;;;22.34;35.36;94907.38;6183242;28;109197;-62
2024/01/02 07:38:04;;;;;;;3.27;2.70;;;;;;;22.32;35.71;94898.91;6182388;28;109253;-62
2024/01/02 07:41:20;;;;;;;3.20;2.40;;;;;;;22.31;35.13;94911.47;6185541;28;109139;-61
2024/01/02 07:44:32;;;;;;;2.97;2.43;;;;;;;22.30;35.10;94923.22;6176785;28;109155;-61
2024/01/02 07:47:43;;;;;;;2.47;2.27;;;;;;;22.29;35.56;94918.97;6188841;28;109322;-62
2024/01/02 07:50:59;;;;;;;3.10;2.80;;;;;;;22.29;35.24;94918.97;6187560;28;109143;-61
2024/01/02 07:54:13;;;;;;;3.03;2.73;;;;;;;22.28;35.45;94920.06;6182120;28;109291;-62
2024/01/02 07:57:29;;;;;;;4.13;2.43;;;;;;;22.27;35.67;94928.38;6180355;28;109225;-62
2024/01/02 08:00:44;;;;;;;2.77;2.23;;;;;;;22.26;35.12;94926.81;6188684;28;109189;-62
2024/01/02 08:04:00;;;;;;;2.90;2.40;;;;;;;22.21;35.16;94929.63;6188277;28;108720;-62
2024/01/02 08:07:19;;;;;;;2.43;2.23;;;;;;;22.24;35.12;94932.47;6176196;28;109499;-62
2024/01/02 08:10:34;;;;;;;2.03;1.83;;;;;;;22.21;35.09;94935.75;6187226;28;109019;-61
2024/01/02 08:13:45;;;;;;;2.80;2.40;;;;;;;22.24;35.56;94942.34;6187889;28;109247;-61
2024/01/02 08:16:57;;;;;;;2.90;2.30;;;;;;;22.25;34.97;94943.91;6183273;28;109265;-61
2024/01/02 08:20:16;;;;;;;2.27;2.00;;;;;;;22.24;35.00;94951.13;6183478;28;109563;-61
2024/01/02 08:23:32;;;;;;;2.27;2.07;;;;;;;22.24;34.97;94958.31;6188259;28;109576;-60
2024/01/02 08:26:49;;;;;;;2.20;1.80;;;;;;;22.24;35.39;94958.31;6186627;28;109053;-61
2024/01/02 08:30:02;;;;;;;2.53;1.87;;;;;;;22.24;35.36;94956.44;6176631;28;109105;-61
2024/01/02 08:33:20;;;;;;;2.50;2.00;;;;;;;22.24;35.30;94955.66;6187878;28;109036;-60
2024/01/02 08:36:41;;;;;;;2.47;1.90;;;;;;;22.25;35.04;94950.03;6185594;28;109195;-61
2024/01/02 08:39:55;;;;;;;2.20;1.80;;;;;;;22.23;35.18;94954.09;6182605;28;109448;-61
2024/01/02 08:43:07;;;;;;;2.70;1.87;;;;;;;22.24;34.79;94950.34;6180556;28;109782;-61
2024/01/02 08:46:22;;;;;;;2.17;1.77;;;;;;;22.23;35.09;94957.53;6187429;28;109197;-61
2024/01/02 08:49:41;;;;;;;3.50;1.83;;;;;;;22.30;34.79;94955.19;6187285;28;109378;-60
2024/01/02 08:53:04;;;;;;;2.70;1.93;;;;;;;22.30;34.97;94955.19;6176262;28;110249;-61
2024/01/02 08:56:21;;;;;;;1.70;1.50;;;;;;;22.27;35.40;94950.50;6186401;28;109258;-61
2024/01/02 08:59:38;;;;;;;2.70;1.83;;;;;;;22.24;35.09;94953.00;6170029;28;109084;-62
2024/01/02 09:02:52;;;;;;;1.80;1.53;;;;;;;22.24;35.21;94966.31;6157761;28;110918;-61
2024/01/02 09:06:05;;;;;;;1.80;1.40;;;;;;;22.24;35.36;94956.44;6156911;28;109083;-59
2024/01/02 09:09:18;;;;;;;1.80;1.47;;;;;;;22.23;34.97;94964.75;6162401;28;109112;-59
2024/01/02 09:12:31;;;;;;;3.93;1.60;;;;;;;22.21;34.68;94957.06;6162385;28;109153;-59
2024/01/02 09:15:53;;;;;;;2.30;1.73;;;;;;;22.22;34.87;94955.19;6151426;28;108991;-60
2024/01/02 09:19:12;;;;;;;2.33;1.40;;;;;;;22.12;34.58;94942.91;6160646;28;109111;-60
2024/01/02 09:22:28;;;;;;;2.50;1.40;;;;;;;22.21;34.66;94943.75;6161625;28;109196;-60
2024/01/02 09:25:51;;;;;;;1.83;1.33;;;;;;;22.22;34.97;94949.84;6155996;28;109025;-60
2024/01/02 09:29:01;;;;;;;2.70;1.50;;;;;;;22.22;35.14;94947.19;6156853;28;109464;-64
2024/01/02 09:32:18;;;;;;;2.23;1.40;;;;;;;22.25;34.85;94946.56;6161840;28;109338;-64
2024/01/02 09:35:33;;;;;;;2.50;1.50;;;;;;;22.28;34.80;94946.72;6161869;28;109075;-64
2024/01/02 09:38:43;;;;;;;5.53;4.80;;;;;;;22.27;34.38;94939.06;6151712;28;109121;-64
2024/01/02 09:42:17;;;;;;;11.47;10.57;;;;;;;22.26;34.86;94940.16;6160750;28;109164;-65
2024/01/02 09:45:35;;;;;;;20.63;19.07;;;;;;;22.41;35.45;94945.06;6161683;28;109262;-64
2024/01/02 09:48:50;;;;;;;19.77;18.27;;;;;;;22.51;34.98;94933.28;6156679;28;109736;-63
2024/01/02 09:52:10;;;;;;;17.60;16.20;;;;;;;22.52;34.46;94921.56;6157027;28;109062;-63
2024/01/02 09:55:22;;;;;;;14.13;13.03;;;;;;;22.46;34.67;94915.56;6161422;28;109105;-64
2024/01/02 09:58:36;;;;;;;12.80;11.83;;;;;;;22.41;34.26;94927.19;6161600;28;109887;-64
2024/01/02 10:01:56;;;;;;;11.93;11.03;;;;;;;22.35;34.67;94909.75;6150878;28;109266;-64
2024/01/02 10:05:21;;;;;;;12.73;11.83;;;;;;;22.30;34.58;94906.44;6159947;28;109120;-65
2024/01/02 10:08:57;;;;;;;14.17;13.07;;;;;;;22.29;34.25;94913.66;6160668;28;109226;-65
2024/01/02 10:12:29;;;;;;;13.83;12.83;;;;;;;22.27;35.02;94901.72;6150363;28;109554;-65
2024/01/02 10:15:59;;;;;;;13.43;12.13;;;;;;;22.25;34.89;94899.38;6161206;28;109190;-67
2024/01/02 10:19:28;;;;;;;12.90;11.93;;;;;;;22.26;34.52;94905.50;6160264;28;109286;-64
2024/01/02 10:22:45;;;;;;;12.80;11.80;;;;;;;22.21;34.68;94887.78;6170247;28;109060;-63
2024/01/02 10:26:01;;;;;;;11.97;11.07;;;;;;;22.24;34.56;94891.69;6179900;28;109335;-64
2024/01/02 10:29:24;;;;;;;10.87;9.97;;;;;;;22.25;34.86;94888.72;6185091;28;109035;-64
2024/01/02 10:32:48;;;;;;;10.23;9.50;;;;;;;22.28;34.28;94885.41;6176111;28;109226;-65
2024/01/02 10:36:04;;;;;;;10.23;9.53;;;;;;;22.29;34.67;94872.88;6150220;28;109008;-65
2024/01/02 10:39:26;;;;;;;9.10;8.40;;;;;;;22.33;34.48;94879.94;6159945;28;109067;-60
2024/01/02 10:42:48;;;;;;;8.83;8.23;;;;;;;22.34;34.22;94878.84;6160744;28;109059;-60
2024/01/02 10:46:08;;;;;;;8.20;7.60;;;;;;;22.36;34.42;94876.66;6153283;28;109020;-61
2024/01/02 10:49:34;;;;;;;8.20;7.57;;;;;;;22.38;34.19;94869.16;6159981;28;109244;-60
2024/01/02 10:53:01;;;;;;;7.47;6.87;;;;;;;22.44;34.18;94866.31;6160059;28;109328;-60
2024/01/02 10:56:24;;;;;;;6.90;6.40;;;;;;;22.42;34.47;94869.31;6158473;28;109071;-60
2024/01/02 10:59:57;;;;;;;6.60;6.10;;;;;;;22.42;34.36;94866.63;6148704;28;109273;-60
2024/01/02 11:03:15;;;;;;;6.50;6.00;;;;;;;22.40;34.40;94860.84;6160073;28;109061;-60
2024/01/02 11:06:40;;;;;;;6.00;5.40;;;;;;;22.38;34.20;94860.38;6160040;28;108707;-61
2024/01/02 11:10:03;;;;;;;5.83;5.33;;;;;;;22.37;34.31;94856.91;6149809;28;109282;-61
2024/01/02 11:13:14;;;;;;;5.43;5.03;;;;;;;22.35;34.64;94853.78;6160198;28;109141;-60
2024/01/02 11:16:23;;;;;;;5.40;4.90;;;;;;;22.33;34.54;94847.94;6162669;28;109195;-60
2024/01/02 11:19:47;;;;;;;4.73;4.33;;;;;;;22.35;34.25;94845.00;6164696;28;109219;-60
2024/01/02 11:23:11;;;;;;;4.10;3.80;;;;;;;22.34;34.26;94846.06;6157404;28;109608;-60
2024/01/02 11:26:28;;;;;;;4.63;4.23;;;;;;;22.34;34.45;94846.06;6163325;28;109261;-61
2024/01/02 11:29:43;;;;;;;4.40;4.00;;;;;;;22.32;34.59;94837.59;6162447;28;109225;-60
2024/01/02 11:33:05;;;;;;;3.63;3.33;;;;;;;22.31;34.62;94839.47;6152349;28;109100;-62
2024/01/02 11:36:29;;;;;;;3.87;3.57;;;;;;;22.33;33.98;94836.50;6164528;28;109176;-59
2024/01/02 11:39:55;;;;;;;3.10;2.90;;;;;;;22.33;33.90;94833.84;6164086;28;110015;-61
2024/01/02 11:43:21;;;;;;;3.80;3.50;;;;;;;22.36;34.32;94833.22;6155821;28;108970;-61
2024/01/02 11:46:40;;;;;;;3.53;3.23;;;;;;;22.37;33.97;94840.13;6163294;28;108879;-61
2024/01/02 11:49:54;;;;;;;3.10;2.80;;;;;;;22.36;34.44;94833.22;6164452;28;109036;-60
2024/01/02 11:53:11;;;;;;;2.73;2.53;;;;;;;22.39;34.35;94832.59;6164004;28;109569;-60
2024/01/02 11:56:34;;;;;;;2.70;2.50;;;;;;;22.38;34.37;94831.81;6152628;28;109369;-60
2024/01/02 12:00:00;;;;;;;2.70;2.50;;;;;;;22.38;34.04;94841.69;6163542;28;109356;-60
2024/01/02 12:03:29;;;;;;;2.80;2.60;;;;;;;22.37;34.39;94837.47;6161088;28;109191;-61
2024/01/02 12:06:57;;;;;;;2.77;2.43;;;;;;;22.36;34.02;94841.22;6152481;28;109286;-61
2024/01/02 12:10:09;;;;;;;2.60;2.40;;;;;;;22.37;34.28;94837.47;6163171;28;109104;-60
2024/01/02 12:13:29;;;;;;;2.87;2.17;;;;;;;22.40;34.02;94826.16;6161966;28;109218;-60
2024/01/02 12:16:48;;;;;;;3.10;2.60;;;;;;;22.40;34.35;94826.16;6163328;28;109440;-61
2024/01/02 12:20:07;;;;;;;5.90;2.53;;;;;;;22.36;33.96;94828.69;6153447;28;108996;-60
2024/01/02 12:23:21;;;;;;;2.93;1.90;;;;;;;22.33;34.37;94831.94;6162154;28;109025;-61
2024/01/02 12:26:40;;;;;;;2.33;2.00;;;;;;;22.31;34.65;94822.69;6162563;28;109125;-60
2024/01/02 12:30:02;;;;;;;2.60;1.80;;;;;;;22.31;34.10;94830.69;6152312;28;109081;-61
2024/01/02 12:33:28;;;;;;;2.23;1.80;;;;;;;22.30;34.08;94829.13;6162813;28;109144;-61
2024/01/02 12:36:48;;;;;;;2.93;2.10;;;;;;;22.30;34.43;94824.59;6161782;28;109234;-60
2024/01/02 12:40:04;;;;;;;2.10;1.70;;;;;;;22.32;34.47;94818.94;6156768;28;109258;-61
2024/01/02 12:43:29;;;;;;;2.37;1.63;;;;;;;22.34;34.11;94814.06;6157477;28;109297;-60
2024/01/02 12:46:54;;;;;;;2.00;1.60;;;;;;;22.34;34.13;94809.53;6160978;28;109021;-60
2024/01/02 12:50:08;;;;;;;2.20;1.90;;;;;;;22.57;35.42;94810.22;6161813;28;109046;-61
2024/01/02 12:53:19;;;;;;;2.63;1.50;;;;;;;22.57;34.09;94815.53;6151300;28;109709;-62
2024/01/02 12:56:37;;;;;;;2.30;1.70;;;;;;;22.49;34.38;94810.94;6162113;28;108835;-61
2024/01/02 12:59:50;;;;;;;2.97;1.87;;;;;;;22.42;34.61;94818.63;6162035;28;109063;-61
2024/01/02 13:03:04;;;;;;;2.30;1.93;;;;;;;22.36;34.10;94822.56;6157456;28;109090;-61
2024/01/02 13:06:21;;;;;;;2.73;1.80;;;;;;;22.33;34.71;94815.94;6157893;28;109156;-61
2024/01/02 13:09:37;;;;;;;2.67;1.67;;;;;;;22.31;34.50;94807.50;6160480;28;109193;-61
2024/01/02 13:12:53;;;;;;;2.83;1.93;;;;;;;22.29;34.21;94806.25;6162225;28;109007;-60
2024/01/02 13:16:06;;;;;;;2.60;1.60;;;;;;;22.29;34.61;94817.69;6151695;28;109041;-61
2024/01/02 13:19:25;;;;;;;2.70;1.50;;;;;;;22.29;34.35;94819.56;6162187;28;109089;-60
2024/01/02 13:22:35;;;;;;;1.93;1.50;;;;;;;22.31;34.05;94820.03;6181484;28;109467;-61
2024/01/02 13:25:46;;;;;;;2.20;1.60;;;;;;;22.33;34.57;94820.50;6164171;28;109618;-60
2024/01/02 13:29:01;;;;;;;2.10;1.40;;;;;;;22.35;34.61;94816.44;6174616;28;108729;-61
2024/01/02 13:32:14;;;;;;;1.67;1.20;;;;;;;22.36;34.47;94815.34;6186372;28;109131;-61
2024/01/02 13:35:32;;;;;;;4.40;1.50;;;;;;;22.37;34.75;94810.81;6185314;28;109301;-61
2024/01/02 13:38:48;;;;;;;2.00;1.20;;;;;;;22.36;34.58;94806.56;6168139;28;109721;-62
2024/01/02 13:41:59;;;;;;;2.00;1.50;;;;;;;22.37;34.93;94813.47;6160836;28;109221;-62
2024/01/02 13:45:25;;;;;;;2.53;1.30;;;;;;;22.37;34.45;94808.13;6160932;28;109164;-62
2024/01/02 13:48:40;;;;;;;2.10;1.37;;;;;;;22.37;34.35;94810.81;6157315;28;109155;-62
2024/01/02 13:51:53;;;;;;;3.17;1.77;;;;;;;22.36;34.23;94809.25;6155793;28;109159;-62
2024/01/02 13:55:05;;;;;;;2.00;1.70;;;;;;;22.33;34.61;94804.50;6160886;28;109122;-62
2024/01/02 13:58:18;;;;;;;1.83;1.40;;;;;;;22.35;34.55;94810.34;6159849;28;109125;-62
2024/01/02 14:01:42;;;;;;;3.20;1.70;;;;;;;22.34;34.76;94812.19;6150135;28;109420;-62
2024/01/02 14:05:05;;;;;;;2.23;1.40;;;;;;;22.34;34.60;94811.41;6161673;28;109058;-62
2024/01/02 14:08:25;;;;;;;2.83;1.33;;;;;;;22.30;35.03;94807.81;6160366;28;109065;-62
2024/01/02 14:11:38;;;;;;;2.30;1.30;;;;;;;22.29;34.81;94809.69;6162053;28;109797;-62
2024/01/02 14:14:58;;;;;;;2.53;1.23;;;;;;;22.28;34.72;94810.00;6178723;28;109091;-62
2024/01/02 14:18:12;;;;;;;2.43;1.57;;;;;;;22.26;34.67;94804.19;6183874;28;109162;-62
2024/01/02 14:21:25;;;;;;;2.27;1.70;;;;;;;22.26;34.53;94804.19;6170742;28;109191;-62
2024/01/02 14:24:49;;;;;;;1.93;1.43;;;;;;;22.26;34.39;94804.19;6161769;28;109224;-62
2024/01/02 14:28:06;;;;;;;3.00;1.70;;;;;;;22.26;33.99;94801.53;6160742;28;109505;-63
2024/01/02 14:31:25;;;;;;;2.20;1.60;;;;;;;22.23;34.20;94802.94;6172979;28;109449;-61
2024/01/02 14:34:54;;;;;;;3.10;2.00;;;;;;;22.23;34.27;94810.94;6164983;28;109590;-61
2024/01/02 14:38:21;;;;;;;3.47;2.20;;;;;;;22.24;34.32;94811.72;6179261;28;109320;-62
2024/01/02 14:41:55;;;;;;;2.93;1.97;;;;;;;22.23;33.68;94804.81;6179165;28;109216;-62
2024/01/02 14:45:10;;;;;;;2.97;2.10;;;;;;;22.23;33.69;94804.81;6162243;28;109417;-60
2024/01/02 14:48:22;;;;;;;2.60;2.40;;;;;;;22.22;34.05;94803.25;6159370;28;109483;-61
2024/01/02 14:51:41;;;;;;;3.10;2.80;;;;;;;22.21;33.75;94805.16;6173529;28;109023;-60
2024/01/02 14:55:11;;;;;;;3.43;3.10;;;;;;;22.20;34.13;94805.47;6170263;28;109220;-60
2024/01/02 14:58:28;;;;;;;5.00;3.63;;;;;;;22.20;33.63;94802.78;6162755;28;109126;-61
2024/01/02 15:01:56;;;;;;;4.23;3.83;;;;;;;22.20;33.92;94813.44;6173630;28;109286;-61
2024/01/02 15:05:20;;;;;;;5.00;4.50;;;;;;;22.19;34.02;94817.22;6164813;28;109137;-60